Palmer, PR (00721)

9:10 AM AST on December 19, 2014 (GMT -0400)
Ciudad Jardin | Change Station
CLOSE
Current Station
Personal Weather Station
Location: Carolina, PR
Elevation: 10 ft
Nearby Weather Stations

Elev 10 ft 18.37 °N, 65.93 °W | Updated 7 minutes ago

Partly Cloudy
Partly Cloudy
80.3 °F
Feels Like 84 °F
N
0.0
Wind Variable Wind from South
Gusts 0.0 mph

Today
High -- | Low -- °F
--% Chance of Precip.
Yesterday
High -- | Low -- °F
Precip. -- in
6:49 AM 5:51 PM
Waning Crescent, 8% visible
Pressure 30.04 in
Visibility 10.0 miles
Clouds Few 3300 ft
Heat Index 84 °F
Dew Point 73 °F
Humidity 77%
Rainfall 0.00 in
Snow Depth Not available.
UV 2 out of 12
Pollen Not available.
Air Quality Not available.
Flu Activity Not available.
METAR TJNR 191253Z AUTO 05008KT 10SM FEW033 27/20 A3004 RMK AO2 SLP171 T02720200

More Conditions Fewer Conditions

Pressure 30.04 in
Visibility 10.0 miles
Clouds Few 3300 ft
Heat Index 84 °F
Dew Point 73 °F
Humidity 77%
Rainfall 0.00 in
Snow Depth Not available.
UV 2 out of 12
Pollen Not available.
Air Quality Not available.
Flu Activity Not available.
METAR TJNR 191253Z AUTO 05008KT 10SM FEW033 27/20 A3004 RMK AO2 SLP171 T02720200

More Conditions Fewer Conditions

10-Day Weather Forecast

Almanac

Astronomy

Dec. 19, 2014 Rise Set
Actual Time
Civil Twilight
Nautical Twilight
Astronomical Twilight
Moon
Length of Visible Light
Length of Day
Tomorrow will be .
, % of the Moon is Illuminated

Today's Extremes

State Highs State Lows

Community

WunderPhotos

Upload Photos

1,778,985 photos uploaded!

WunderBlogs® & News

Nearby

Air Quality

  Air Quality AQ Index Pollutant
Not available.

Snow Depth

Station Depth Elevation

Earthquake Activity

City Distance Mag. Time & Date
Minimum magnitude displayed is 2.5.

Coastal Water Temperatures

Place Temperature

Nearby Weather Stations